Time;durP1;ratioP1;P1;durP2;ratioP2;P2;SDS_P1;SDS_P2;PMS_P1;PMS_P2;Temp;Humidity;BMP_temperature;BMP_pressure;BME280_temperature;BME280_humidity;BME280_pressure;Samples;Min_cycle;Max_cycle;Signal;HPM_P1;HPM_P2
2021/03/26 00:02:21;;;;;;;44.27;27.50;;;9.80;99.90;;;;;;4990874;28;20214;-75
2021/03/26 00:04:47;;;;;;;41.63;27.03;;;9.80;99.90;;;;;;4991099;28;20206;-75
2021/03/26 00:07:13;;;;;;;38.93;26.30;;;9.80;99.90;;;;;;4990950;28;20665;-74
2021/03/26 00:09:40;;;;;;;40.40;27.40;;;9.80;99.90;;;;;;4991115;28;20210;-74
2021/03/26 00:12:13;;;;;;;41.90;26.73;;;9.70;99.90;;;;;;4990846;28;20210;-74
2021/03/26 00:14:39;;;;;;;39.43;25.80;;;9.70;99.90;;;;;;4990964;28;20222;-74
2021/03/26 00:17:06;;;;;;;40.87;26.67;;;9.80;99.90;;;;;;4990436;28;20216;-74
2021/03/26 00:19:32;;;;;;;41.90;26.60;;;9.80;99.90;;;;;;4990537;28;20246;-76
2021/03/26 00:21:58;;;;;;;38.57;25.60;;;9.80;99.90;;;;;;4990692;28;20210;-76
2021/03/26 00:24:24;;;;;;;40.70;25.13;;;9.80;99.90;;;;;;4991017;28;20325;-76
2021/03/26 00:26:51;;;;;;;42.87;26.30;;;9.80;99.90;;;;;;4990768;28;20238;-77
2021/03/26 00:29:18;;;;;;;36.07;24.50;;;9.80;99.90;;;;;;5000939;28;20570;-76
2021/03/26 00:31:45;;;;;;;36.33;26.43;;;9.80;99.90;;;;;;5010232;28;20205;-77
2021/03/26 00:34:11;;;;;;;40.17;25.50;;;9.80;99.90;;;;;;5010180;28;20210;-77
2021/03/26 00:36:37;;;;;;;44.27;25.90;;;9.80;99.90;;;;;;5010294;28;20210;-78
2021/03/26 00:39:05;;;;;;;38.70;26.07;;;9.70;99.90;;;;;;5010362;28;20205;-78
2021/03/26 00:41:31;;;;;;;39.63;25.63;;;9.80;99.90;;;;;;5010367;28;20202;-78
2021/03/26 00:43:58;;;;;;;38.70;25.63;;;9.70;99.90;;;;;;5010281;28;20245;-78
2021/03/26 00:46:24;;;;;;;39.70;26.03;;;9.70;99.90;;;;;;5010248;28;20229;-77
2021/03/26 00:48:51;;;;;;;39.47;26.93;;;9.60;99.90;;;;;;5010225;28;20264;-78
2021/03/26 00:51:17;;;;;;;40.20;25.47;;;9.60;99.90;;;;;;5010226;28;20202;-77
2021/03/26 00:53:43;;;;;;;39.87;25.10;;;9.60;99.90;;;;;;5010186;28;20622;-78
2021/03/26 00:56:09;;;;;;;40.87;25.77;;;9.60;99.90;;;;;;5009944;28;20313;-78
2021/03/26 00:58:35;;;;;;;39.27;26.60;;;9.60;99.90;;;;;;5009111;28;20210;-78
2021/03/26 01:01:03;;;;;;;43.60;25.53;;;9.60;99.90;;;;;;5009780;28;20546;-76
2021/03/26 01:03:31;;;;;;;39.03;26.07;;;9.60;99.90;;;;;;5009738;28;20237;-75
2021/03/26 01:05:59;;;;;;;42.33;26.37;;;9.60;99.90;;;;;;5009255;28;20580;-74
2021/03/26 01:08:25;;;;;;;39.03;26.80;;;9.60;99.90;;;;;;5009786;28;20624;-74
2021/03/26 01:10:54;;;;;;;40.30;27.03;;;9.50;99.90;;;;;;5009606;28;20240;-75
2021/03/26 01:13:20;;;;;;;41.87;27.23;;;9.60;99.90;;;;;;5009096;28;20205;-74
2021/03/26 01:15:48;;;;;;;37.73;25.87;;;9.60;99.90;;;;;;5009301;28;20423;-74
2021/03/26 01:18:24;;;;;;;41.43;26.87;;;9.60;99.90;;;;;;5009472;28;20384;-74
2021/03/26 01:20:51;;;;;;;42.20;27.73;;;9.50;99.90;;;;;;5009097;28;20295;-74
2021/03/26 01:23:18;;;;;;;41.20;25.40;;;9.50;99.90;;;;;;5009238;28;20216;-75
2021/03/26 01:25:44;;;;;;;46.80;26.53;;;9.50;99.90;;;;;;5009609;28;20214;-76
2021/03/26 01:28:15;;;;;;;39.13;26.27;;;9.50;99.90;;;;;;5009096;28;20233;-76
2021/03/26 01:30:42;;;;;;;44.13;27.10;;;9.50;99.90;;;;;;5009363;28;20190;-76
2021/03/26 01:33:08;;;;;;;41.03;28.43;;;9.50;99.90;;;;;;5009057;28;20268;-76
2021/03/26 01:35:37;;;;;;;40.67;27.40;;;9.50;99.90;;;;;;5009322;28;20213;-76
2021/03/26 01:38:04;;;;;;;40.87;27.27;;;9.50;99.90;;;;;;5008930;28;20210;-76
2021/03/26 01:40:32;;;;;;;37.90;26.70;;;9.40;99.90;;;;;;5008935;28;20240;-75
2021/03/26 01:43:07;;;;;;;42.60;27.47;;;9.40;99.90;;;;;;5008929;28;20201;-76
2021/03/26 01:45:33;;;;;;;42.10;26.37;;;9.50;99.90;;;;;;5009076;28;20648;-76
2021/03/26 01:47:59;;;;;;;41.30;27.30;;;9.40;99.90;;;;;;5008871;28;20268;-76
2021/03/26 01:50:28;;;;;;;40.00;26.37;;;9.40;99.90;;;;;;5005405;28;20209;-75
2021/03/26 01:52:55;;;;;;;40.43;27.10;;;9.40;99.90;;;;;;5008815;28;20248;-76
2021/03/26 01:55:25;;;;;;;41.50;28.27;;;9.50;99.90;;;;;;5008906;28;20228;-76
2021/03/26 01:57:52;;;;;;;44.07;28.37;;;9.40;99.90;;;;;;5008595;28;20669;-75
2021/03/26 02:00:26;;;;;;;43.83;28.83;;;9.50;99.90;;;;;;5008525;28;20583;-76
2021/03/26 02:02:53;;;;;;;42.43;28.37;;;9.40;99.90;;;;;;5008726;28;20680;-76
2021/03/26 02:05:24;;;;;;;38.80;28.03;;;9.40;99.90;;;;;;5008745;28;20575;-76
2021/03/26 02:07:51;;;;;;;43.33;27.43;;;9.40;99.90;;;;;;5008678;28;20264;-75
2021/03/26 02:10:17;;;;;;;43.67;28.27;;;9.40;99.90;;;;;;5008343;28;20271;-76
2021/03/26 02:12:44;;;;;;;42.40;27.10;;;9.40;99.90;;;;;;5008835;28;20229;-76
2021/03/26 02:15:21;;;;;;;39.43;27.93;;;9.40;99.90;;;;;;5008417;28;20213;-76
2021/03/26 02:17:48;;;;;;;44.50;28.63;;;9.30;99.90;;;;;;5008536;28;20197;-76
2021/03/26 02:20:26;;;;;;;45.13;28.20;;;9.40;99.90;;;;;;5008083;28;20584;-75
2021/03/26 02:22:55;;;;;;;41.57;28.47;;;9.30;99.90;;;;;;5008191;28;20190;-76
2021/03/26 02:25:24;;;;;;;44.07;28.10;;;9.30;99.90;;;;;;5008586;28;20720;-76
2021/03/26 02:27:51;;;;;;;43.90;28.80;;;9.30;99.90;;;;;;5008864;28;20280;-75
2021/03/26 02:30:25;;;;;;;47.33;29.83;;;9.30;99.90;;;;;;5008293;28;20656;-75
2021/03/26 02:32:52;;;;;;;48.23;29.00;;;9.30;99.90;;;;;;5008624;28;20190;-74
2021/03/26 02:35:24;;;;;;;46.30;29.63;;;9.30;99.90;;;;;;5008097;28;20824;-75
2021/03/26 02:37:55;;;;;;;47.43;29.57;;;9.30;99.90;;;;;;5008325;28;20779;-75
2021/03/26 02:40:28;;;;;;;42.57;28.17;;;9.20;99.90;;;;;;5008374;28;20220;-75
2021/03/26 02:43:00;;;;;;;43.07;28.27;;;9.30;99.90;;;;;;5008439;28;20198;-75
2021/03/26 02:45:31;;;;;;;45.70;29.00;;;9.30;99.90;;;;;;5008671;28;20208;-75
2021/03/26 02:48:00;;;;;;;42.90;28.23;;;9.30;99.90;;;;;;5008230;28;20261;-75
2021/03/26 02:50:39;;;;;;;41.53;28.23;;;9.30;99.90;;;;;;5008529;28;20248;-75
2021/03/26 02:53:10;;;;;;;49.43;28.13;;;9.30;99.90;;;;;;5008180;28;20194;-74
2021/03/26 02:55:41;;;;;;;46.90;28.13;;;9.30;99.90;;;;;;5008273;28;20610;-74
2021/03/26 02:58:13;;;;;;;42.43;27.97;;;9.30;99.90;;;;;;5008156;28;20198;-75
2021/03/26 03:00:44;;;;;;;45.47;28.20;;;9.30;99.90;;;;;;5008246;28;20197;-76
2021/03/26 03:03:13;;;;;;;44.97;28.07;;;9.20;99.90;;;;;;5008318;28;20203;-77
2021/03/26 03:05:43;;;;;;;46.10;29.33;;;9.30;99.90;;;;;;5008317;28;20228;-76
2021/03/26 03:08:14;;;;;;;42.77;29.17;;;9.20;99.90;;;;;;5008291;28;20279;-75
2021/03/26 03:10:43;;;;;;;41.93;28.60;;;9.20;99.90;;;;;;5007965;28;20205;-77
2021/03/26 03:13:15;;;;;;;43.63;28.23;;;9.20;99.90;;;;;;5008034;28;20237;-76
2021/03/26 03:15:46;;;;;;;43.20;29.03;;;9.30;99.90;;;;;;5008248;28;20201;-77
2021/03/26 03:18:18;;;;;;;44.53;28.30;;;9.30;99.90;;;;;;5008024;28;20301;-77
2021/03/26 03:20:52;;;;;;;44.57;28.73;;;9.20;99.90;;;;;;5007716;28;20273;-77
2021/03/26 03:23:24;;;;;;;43.97;29.43;;;9.30;99.90;;;;;;5011692;28;20209;-80
2021/03/26 03:25:56;;;;;;;41.03;27.63;;;9.30;99.90;;;;;;5011559;28;20720;-79
2021/03/26 03:28:31;;;;;;;46.67;29.47;;;9.20;99.90;;;;;;5011821;28;20230;-79
2021/03/26 03:31:08;;;;;;;44.97;27.90;;;9.20;99.90;;;;;;5012143;28;20216;-78
2021/03/26 03:33:39;;;;;;;45.13;28.53;;;9.20;99.90;;;;;;5011788;28;20543;-77
2021/03/26 03:36:10;;;;;;;42.53;28.33;;;9.20;99.90;;;;;;5011409;28;20604;-77
2021/03/26 03:38:51;;;;;;;49.67;28.90;;;9.10;99.90;;;;;;5011556;28;20210;-77
2021/03/26 03:41:25;;;;;;;45.27;28.70;;;9.20;99.90;;;;;;5011329;28;20198;-77
2021/03/26 03:44:01;;;;;;;45.33;28.70;;;9.20;99.90;;;;;;5011598;28;20240;-78
2021/03/26 03:46:32;;;;;;;46.23;28.87;;;9.20;99.90;;;;;;5011305;28;20225;-77
2021/03/26 03:49:06;;;;;;;41.50;27.57;;;9.20;99.90;;;;;;5011056;28;20636;-76
2021/03/26 03:51:37;;;;;;;42.83;28.80;;;9.20;99.90;;;;;;5011266;28;20190;-77
2021/03/26 03:54:08;;;;;;;44.03;28.97;;;9.30;99.90;;;;;;5010815;28;20708;-77
2021/03/26 03:56:39;;;;;;;41.83;28.73;;;9.20;99.90;;;;;;5011196;28;20201;-78
2021/03/26 03:59:09;;;;;;;44.43;29.30;;;9.20;99.90;;;;;;5011069;28;20626;-77
2021/03/26 04:01:42;;;;;;;43.07;29.13;;;9.30;99.90;;;;;;5010727;28;20703;-77
2021/03/26 04:04:13;;;;;;;44.47;28.40;;;9.30;99.90;;;;;;5010692;28;20253;-76
2021/03/26 04:06:46;;;;;;;46.23;29.17;;;9.30;99.90;;;;;;5010590;28;20256;-77
2021/03/26 04:09:16;;;;;;;43.17;28.90;;;9.30;99.90;;;;;;5010818;28;20225;-77
2021/03/26 04:11:46;;;;;;;42.70;28.73;;;9.30;99.90;;;;;;5011054;28;20233;-78
2021/03/26 04:14:17;;;;;;;43.13;28.73;;;9.20;99.90;;;;;;5010906;28;20625;-77
2021/03/26 04:16:47;;;;;;;42.00;29.60;;;9.30;99.90;;;;;;5010885;28;20233;-78
2021/03/26 04:19:17;;;;;;;43.00;28.63;;;9.20;99.90;;;;;;5010243;28;20234;-76
2021/03/26 04:21:46;;;;;;;42.90;29.00;;;9.20;99.90;;;;;;5010630;28;20197;-77
2021/03/26 04:24:16;;;;;;;39.37;28.37;;;9.20;99.90;;;;;;5010312;28;20213;-77
2021/03/26 04:26:47;;;;;;;42.37;29.30;;;9.30;99.90;;;;;;5010174;28;20213;-75
2021/03/26 04:29:19;;;;;;;43.47;29.33;;;9.30;99.90;;;;;;5010321;28;20234;-76
2021/03/26 04:31:50;;;;;;;43.43;29.17;;;9.30;99.90;;;;;;5010258;28;20233;-75
2021/03/26 04:34:17;;;;;;;48.63;28.90;;;9.30;99.90;;;;;;5010483;28;20221;-78
2021/03/26 04:36:52;;;;;;;40.80;28.30;;;9.30;99.90;;;;;;5010563;28;20209;-78
2021/03/26 04:39:27;;;;;;;40.57;29.33;;;9.30;99.90;;;;;;5010510;28;20212;-77
2021/03/26 04:42:00;;;;;;;49.17;29.70;;;9.30;99.90;;;;;;5010579;28;20232;-76
2021/03/26 04:44:38;;;;;;;45.27;29.97;;;9.30;99.90;;;;;;5010123;28;20198;-77
2021/03/26 04:47:12;;;;;;;42.10;28.67;;;9.30;99.90;;;;;;5009853;28;20229;-77
2021/03/26 04:49:44;;;;;;;42.50;28.67;;;9.30;99.90;;;;;;5009897;28;20194;-77
2021/03/26 04:52:17;;;;;;;43.83;29.17;;;9.20;99.90;;;;;;5009877;28;20663;-79
2021/03/26 04:54:47;;;;;;;46.40;29.47;;;9.20;99.90;;;;;;5009989;28;20233;-77
2021/03/26 04:57:19;;;;;;;41.07;28.90;;;9.30;99.90;;;;;;5009673;28;20698;-78
2021/03/26 04:59:53;;;;;;;45.17;30.00;;;9.20;99.90;;;;;;5009924;28;20252;-77
2021/03/26 05:02:22;;;;;;;43.47;29.03;;;9.20;99.90;;;;;;5009779;28;20203;-76
2021/03/26 05:04:51;;;;;;;44.37;29.80;;;9.20;99.90;;;;;;5009711;28;20201;-76
2021/03/26 05:07:22;;;;;;;43.67;28.07;;;9.20;99.90;;;;;;5009419;28;20225;-76
2021/03/26 05:09:52;;;;;;;45.03;29.87;;;9.20;99.90;;;;;;5009588;28;20194;-76
2021/03/26 05:12:23;;;;;;;45.77;30.63;;;9.20;99.90;;;;;;5009479;28;20229;-78
2021/03/26 05:14:55;;;;;;;48.93;29.93;;;9.20;99.90;;;;;;5009686;28;20221;-79
2021/03/26 05:17:28;;;;;;;48.87;29.60;;;9.20;99.90;;;;;;5009698;28;20201;-76
2021/03/26 05:20:02;;;;;;;45.63;29.97;;;9.20;99.90;;;;;;5009337;28;20244;-77
2021/03/26 05:22:43;;;;;;;46.73;30.40;;;9.20;99.90;;;;;;5009546;28;20293;-76
2021/03/26 05:25:15;;;;;;;45.70;30.03;;;9.20;99.90;;;;;;5009703;28;20558;-76
2021/03/26 05:27:44;;;;;;;48.00;30.33;;;9.10;99.90;;;;;;5009399;28;20229;-78
2021/03/26 05:30:12;;;;;;;50.77;32.43;;;9.20;99.90;;;;;;5009152;28;20687;-78
2021/03/26 05:32:44;;;;;;;49.30;31.90;;;9.20;99.90;;;;;;5009283;28;20556;-77
2021/03/26 05:35:21;;;;;;;52.00;31.80;;;9.20;99.90;;;;;;5009513;28;20608;-77
2021/03/26 05:37:59;;;;;;;50.43;33.63;;;9.20;99.90;;;;;;5009327;28;20189;-78
2021/03/26 05:40:51;;;;;;;52.10;32.20;;;9.10;99.90;;;;;;5009181;28;20243;-78
2021/03/26 05:43:32;;;;;;;45.87;31.00;;;9.10;99.90;;;;;;5008623;28;20718;-78
2021/03/26 05:46:09;;;;;;;50.33;30.70;;;9.10;99.90;;;;;;5009024;28;20648;-78
2021/03/26 05:48:42;;;;;;;47.90;31.30;;;9.10;99.90;;;;;;5009245;28;20227;-77
2021/03/26 05:51:28;;;;;;;46.43;30.30;;;9.20;99.90;;;;;;5009192;28;20216;-78
2021/03/26 05:54:04;;;;;;;52.57;32.57;;;9.20;99.90;;;;;;5009493;28;20583;-78
2021/03/26 05:56:38;;;;;;;49.73;30.87;;;9.20;99.90;;;;;;5009376;28;20263;-78
2021/03/26 05:59:35;;;;;;;51.70;31.33;;;9.20;99.90;;;;;;5009133;28;20204;-79
2021/03/26 06:02:24;;;;;;;50.13;31.83;;;9.20;99.90;;;;;;5007997;28;20201;-79
2021/03/26 06:05:26;;;;;;;48.00;32.47;;;9.20;99.90;;;;;;5009167;28;20463;-78
2021/03/26 06:08:28;;;;;;;53.23;33.03;;;9.20;99.90;;;;;;5008962;28;20228;-78
2021/03/26 06:11:35;;;;;;;51.37;33.07;;;9.20;99.90;;;;;;5009218;28;20215;-78
2021/03/26 06:14:30;;;;;;;50.57;31.23;;;9.20;99.90;;;;;;5008952;28;20229;-77
2021/03/26 06:17:20;;;;;;;46.57;30.17;;;9.30;99.90;;;;;;5006096;28;20205;-77
2021/03/26 06:20:02;;;;;;;45.97;29.97;;;9.30;99.90;;;;;;5008712;28;20589;-76
2021/03/26 06:22:38;;;;;;;50.47;33.23;;;9.40;99.90;;;;;;5008612;28;20560;-78
2021/03/26 06:25:28;;;;;;;55.63;33.17;;;9.50;99.90;;;;;;5008782;28;20193;-77
2021/03/26 06:28:05;;;;;;;53.77;33.23;;;9.60;99.90;;;;;;5008528;28;20233;-76
2021/03/26 06:30:39;;;;;;;47.50;32.50;;;9.60;99.90;;;;;;5008291;28;20576;-76
2021/03/26 06:33:36;;;;;;;51.43;32.17;;;9.70;99.90;;;;;;5008424;28;20197;-76
2021/03/26 06:36:41;;;;;;;57.43;36.50;;;9.80;99.90;;;;;;5008444;28;20604;-77
2021/03/26 06:39:30;;;;;;;55.10;34.33;;;9.80;99.90;;;;;;5008608;28;20248;-76
2021/03/26 06:42:25;;;;;;;54.57;34.83;;;9.80;99.90;;;;;;5008688;28;20562;-78
2021/03/26 06:45:11;;;;;;;51.83;34.17;;;9.90;99.90;;;;;;5008780;28;20233;-78
2021/03/26 06:47:50;;;;;;;50.53;34.77;;;10.00;99.90;;;;;;5008606;28;20269;-78
2021/03/26 06:50:41;;;;;;;52.13;35.23;;;10.10;99.90;;;;;;5008477;28;20201;-76
2021/03/26 06:53:18;;;;;;;53.43;35.97;;;10.20;99.90;;;;;;5008419;28;20275;-78
2021/03/26 06:56:29;;;;;;;57.43;36.43;;;10.20;99.90;;;;;;5009969;28;20202;-77
2021/03/26 06:59:35;;;;;;;52.73;34.73;;;10.20;99.90;;;;;;5012488;28;20194;-78
2021/03/26 07:02:26;;;;;;;55.57;35.40;;;10.10;99.90;;;;;;5012119;28;20240;-78
2021/03/26 07:05:12;;;;;;;58.50;34.53;;;10.10;99.90;;;;;;5012282;28;20197;-79
2021/03/26 07:07:57;;;;;;;51.90;33.97;;;10.10;99.90;;;;;;5012131;28;20229;-77
2021/03/26 07:10:35;;;;;;;53.73;34.37;;;10.00;99.90;;;;;;5011120;28;20241;-77
2021/03/26 07:13:30;;;;;;;49.57;33.37;;;10.00;99.90;;;;;;5012219;28;20244;-76
2021/03/26 07:16:11;;;;;;;51.50;33.40;;;9.90;99.90;;;;;;5012026;28;20332;-77
2021/03/26 07:19:18;;;;;;;53.37;34.40;;;9.90;99.90;;;;;;5011763;28;20292;-75
2021/03/26 07:21:58;;;;;;;54.27;35.30;;;9.90;99.90;;;;;;5003288;28;20237;-78
2021/03/26 07:24:45;;;;;;;54.93;35.33;;;9.90;99.90;;;;;;5011813;28;20683;-78
2021/03/26 07:27:19;;;;;;;53.57;36.03;;;10.00;99.90;;;;;;5005159;28;20340;-78
2021/03/26 07:30:12;;;;;;;50.87;35.20;;;10.10;99.90;;;;;;5001774;28;20190;-80
2021/03/26 07:32:45;;;;;;;56.20;35.27;;;10.10;99.90;;;;;;4993214;28;20205;-76
2021/03/26 07:35:31;;;;;;;56.43;36.63;;;10.20;99.90;;;;;;5002245;28;20197;-77
2021/03/26 07:38:13;;;;;;;54.37;36.13;;;10.20;99.90;;;;;;5001700;28;20260;-78
2021/03/26 07:40:51;;;;;;;53.80;35.70;;;10.30;99.90;;;;;;5002204;28;20198;-77
2021/03/26 07:43:54;;;;;;;61.73;36.50;;;10.30;99.90;;;;;;4997240;28;20641;-77
2021/03/26 07:46:36;;;;;;;53.47;35.93;;;10.40;99.90;;;;;;4984364;28;20201;-77
2021/03/26 07:49:12;;;;;;;61.60;40.93;;;10.40;99.90;;;;;;5007332;28;20209;-76
2021/03/26 07:51:43;;;;;;;53.03;37.20;;;10.40;99.90;;;;;;5007587;28;20220;-76
2021/03/26 07:54:25;;;;;;;61.57;38.03;;;10.50;99.90;;;;;;5007684;28;20226;-73
2021/03/26 07:57:19;;;;;;;56.37;35.50;;;10.60;99.90;;;;;;5007177;28;20209;-72
2021/03/26 08:00:12;;;;;;;53.53;36.17;;;10.70;99.90;;;;;;5004952;28;20209;-77
2021/03/26 08:02:47;;;;;;;57.37;36.73;;;10.70;99.90;;;;;;5007052;28;20544;-77
2021/03/26 08:05:20;;;;;;;58.77;39.07;;;10.80;99.90;;;;;;4994537;28;20262;-78
2021/03/26 08:08:29;;;;;;;54.63;36.83;;;10.80;99.90;;;;;;5004939;28;20500;-78
2021/03/26 08:11:00;;;;;;;70.50;50.10;;;10.80;99.90;;;;;;5010834;28;20734;-77
2021/03/26 08:13:51;;;;;;;69.60;47.17;;;10.70;99.90;;;;;;5020774;28;20193;-78
2021/03/26 08:17:06;;;;;;;80.27;52.37;;;10.60;99.90;;;;;;5015772;28;20189;-78
2021/03/26 08:19:46;;;;;;;64.77;44.77;;;10.60;99.90;;;;;;5023692;28;20310;-78
2021/03/26 08:22:22;;;;;;;55.00;37.40;;;10.60;99.90;;;;;;5027179;28;20200;-77
2021/03/26 08:24:59;;;;;;;61.97;38.03;;;10.60;99.90;;;;;;4993536;28;20197;-78
2021/03/26 08:27:36;;;;;;;60.73;38.40;;;10.60;99.90;;;;;;4998925;28;20213;-78
2021/03/26 08:30:29;;;;;;;57.47;38.33;;;10.60;99.90;;;;;;5003981;28;20194;-73
2021/03/26 08:33:17;;;;;;;57.87;36.90;;;10.60;99.90;;;;;;5005358;28;20194;-78
2021/03/26 08:36:11;;;;;;;73.37;49.60;;;10.60;99.90;;;;;;4997309;28;20213;-78
2021/03/26 08:38:50;;;;;;;68.80;45.77;;;10.50;99.90;;;;;;5014708;28;20881;-78
2021/03/26 08:41:20;;;;;;;61.80;40.57;;;10.50;99.90;;;;;;5017474;28;20255;-78
2021/03/26 08:43:51;;;;;;;61.20;40.17;;;10.50;99.90;;;;;;5015975;28;20661;-76
2021/03/26 08:46:20;;;;;;;61.87;43.17;;;10.60;99.90;;;;;;5016370;28;20691;-76
2021/03/26 08:48:57;;;;;;;58.03;39.93;;;10.60;99.90;;;;;;5012882;28;20232;-75
2021/03/26 08:51:55;;;;;;;59.17;38.67;;;10.60;99.90;;;;;;5008853;28;20640;-76
2021/03/26 08:54:41;;;;;;;68.37;43.57;;;10.60;99.90;;;;;;4988895;28;20310;-77
2021/03/26 08:57:18;;;;;;;62.60;40.27;;;10.70;99.90;;;;;;5024146;28;20213;-76
2021/03/26 08:59:55;;;;;;;57.97;39.30;;;10.70;99.90;;;;;;5021945;28;20196;-77
2021/03/26 09:02:42;;;;;;;65.50;43.20;;;10.80;99.90;;;;;;5016753;28;20571;-77
2021/03/26 09:05:37;;;;;;;60.17;40.43;;;10.90;99.90;;;;;;5015933;28;20233;-77
2021/03/26 09:08:13;;;;;;;65.70;40.67;;;11.10;99.90;;;;;;5014613;28;20232;-77
2021/03/26 09:11:09;;;;;;;67.07;42.37;;;11.40;99.90;;;;;;5013852;28;20193;-77
2021/03/26 09:13:49;;;;;;;64.90;42.10;;;11.60;99.90;;;;;;5015485;28;20542;-77
2021/03/26 09:16:19;;;;;;;63.67;41.30;;;11.80;99.90;;;;;;5017535;28;20271;-78
2021/03/26 09:18:56;;;;;;;66.03;41.53;;;12.00;99.90;;;;;;5013858;28;20225;-76
2021/03/26 09:21:33;;;;;;;63.53;39.90;;;12.10;99.90;;;;;;5016088;28;20188;-77
2021/03/26 09:24:19;;;;;;;60.20;39.80;;;12.20;99.90;;;;;;5016491;28;20326;-77
2021/03/26 09:27:08;;;;;;;60.43;40.00;;;12.40;99.90;;;;;;5014808;28;20232;-76
2021/03/26 09:29:43;;;;;;;58.23;38.87;;;12.60;99.90;;;;;;5017085;28;20190;-77
2021/03/26 09:32:16;;;;;;;54.13;37.67;;;12.80;99.90;;;;;;5017682;28;20208;-77
2021/03/26 09:34:47;;;;;;;59.03;39.03;;;13.00;99.90;;;;;;5018825;28;20193;-76
2021/03/26 09:37:24;;;;;;;61.27;40.53;;;13.10;99.90;;;;;;5015634;28;20199;-77
2021/03/26 09:39:53;;;;;;;57.93;38.20;;;13.20;99.90;;;;;;5015626;28;20532;-77
2021/03/26 09:42:39;;;;;;;55.60;37.13;;;13.30;99.90;;;;;;5016099;28;20205;-77
2021/03/26 09:45:11;;;;;;;60.00;39.93;;;13.40;99.90;;;;;;5016018;28;20648;-77
2021/03/26 09:47:43;;;;;;;50.37;34.07;;;13.50;99.90;;;;;;5020734;28;20563;-76
2021/03/26 09:50:35;;;;;;;51.80;37.33;;;13.60;99.90;;;;;;5020439;28;20230;-75
2021/03/26 09:53:09;;;;;;;57.07;37.83;;;13.60;99.90;;;;;;5010328;28;20214;-78
2021/03/26 09:55:37;;;;;;;55.13;37.23;;;13.60;99.90;;;;;;5017324;28;20185;-78
2021/03/26 09:58:13;;;;;;;54.53;37.57;;;13.50;99.90;;;;;;5016630;28;20209;-78
2021/03/26 10:00:48;;;;;;;56.03;38.87;;;13.50;99.90;;;;;;5016653;28;20196;-78
2021/03/26 10:03:37;;;;;;;55.33;35.43;;;13.50;99.90;;;;;;5015443;28;20662;-77
2021/03/26 10:06:10;;;;;;;53.33;35.67;;;13.60;99.90;;;;;;5015462;28;20733;-77
2021/03/26 10:08:54;;;;;;;50.33;36.53;;;13.70;99.90;;;;;;5017608;28;20711;-77
2021/03/26 10:11:24;;;;;;;52.53;37.57;;;13.70;99.90;;;;;;5017449;28;20189;-77
2021/03/26 10:13:54;;;;;;;53.10;37.40;;;13.60;99.90;;;;;;5017141;28;20264;-76
2021/03/26 10:16:28;;;;;;;54.33;36.80;;;13.50;99.90;;;;;;5015550;28;20190;-77
2021/03/26 10:19:01;;;;;;;59.97;38.57;;;13.50;99.90;;;;;;5017369;28;20319;-77
2021/03/26 10:21:32;;;;;;;57.00;38.07;;;13.50;99.90;;;;;;5016142;28;20255;-77
2021/03/26 10:24:13;;;;;;;54.43;38.83;;;13.40;99.90;;;;;;5015746;28;20201;-77
2021/03/26 10:26:43;;;;;;;54.93;38.17;;;13.40;99.90;;;;;;5018166;28;20201;-77
2021/03/26 10:29:25;;;;;;;56.67;37.53;;;13.40;99.90;;;;;;5015630;28;20227;-77
2021/03/26 10:31:53;;;;;;;52.77;35.33;;;13.30;99.90;;;;;;5014035;28;20208;-76
2021/03/26 10:34:31;;;;;;;56.97;38.80;;;13.30;99.90;;;;;;5021386;28;20563;-78
2021/03/26 10:37:17;;;;;;;55.63;38.23;;;13.30;99.90;;;;;;5021999;28;20224;-78
2021/03/26 10:39:49;;;;;;;54.73;38.07;;;13.30;99.90;;;;;;5022443;28;20198;-77
2021/03/26 10:42:29;;;;;;;55.67;38.30;;;13.30;99.90;;;;;;5013897;28;20190;-77
2021/03/26 10:45:14;;;;;;;55.37;38.03;;;13.30;99.90;;;;;;5020098;28;20189;-78
2021/03/26 10:47:48;;;;;;;58.00;39.87;;;13.30;99.90;;;;;;5019208;28;20505;-77
2021/03/26 10:50:30;;;;;;;59.80;38.70;;;13.40;99.90;;;;;;5022462;28;20247;-77
2021/03/26 10:53:03;;;;;;;57.87;39.17;;;13.40;99.90;;;;;;5019888;28;20197;-77
2021/03/26 10:55:40;;;;;;;55.80;39.23;;;13.40;99.90;;;;;;5021031;28;20256;-77
2021/03/26 10:58:13;;;;;;;58.23;38.87;;;13.40;99.90;;;;;;5014387;28;20583;-77
2021/03/26 11:00:42;;;;;;;59.27;39.37;;;13.40;99.90;;;;;;5014057;28;20252;-78
2021/03/26 11:03:11;;;;;;;57.10;38.93;;;13.40;99.90;;;;;;5024761;28;20216;-77
2021/03/26 11:05:46;;;;;;;60.43;39.27;;;13.40;99.90;;;;;;5023769;28;20780;-78
2021/03/26 11:08:26;;;;;;;57.47;39.17;;;13.40;99.90;;;;;;5017184;28;20334;-77
2021/03/26 11:11:00;;;;;;;54.70;38.60;;;13.40;99.90;;;;;;5021303;28;20216;-77
2021/03/26 11:13:46;;;;;;;58.30;39.07;;;13.50;99.90;;;;;;5014691;28;20837;-77
2021/03/26 11:16:21;;;;;;;56.80;40.20;;;13.60;99.90;;;;;;5019694;28;20200;-77
2021/03/26 11:18:54;;;;;;;58.53;40.50;;;13.60;99.90;;;;;;5018388;28;21017;-77
2021/03/26 11:21:23;;;;;;;56.90;38.47;;;13.80;99.90;;;;;;5021356;28;20190;-77
2021/03/26 11:23:57;;;;;;;53.17;37.17;;;13.90;99.90;;;;;;5023191;28;20204;-77
2021/03/26 11:26:30;;;;;;;50.00;36.40;;;14.00;99.90;;;;;;5020886;28;20204;-77
2021/03/26 11:29:05;;;;;;;52.13;36.37;;;14.20;99.90;;;;;;5024980;28;20216;-77
2021/03/26 11:31:37;;;;;;;48.90;34.70;;;14.30;99.90;;;;;;5012431;28;20229;-77
2021/03/26 11:34:10;;;;;;;50.40;34.47;;;14.40;99.90;;;;;;4996280;28;20198;-77
2021/03/26 11:36:55;;;;;;;48.63;33.27;;;14.40;99.90;;;;;;4986668;28;20206;-77
2021/03/26 11:39:30;;;;;;;52.23;32.27;;;14.50;99.90;;;;;;4987696;28;20645;-77
2021/03/26 11:42:06;;;;;;;46.50;32.63;;;14.60;99.90;;;;;;4986890;28;20198;-77
2021/03/26 11:44:34;;;;;;;43.77;32.40;;;14.60;99.90;;;;;;4987843;28;20204;-77
2021/03/26 11:47:05;;;;;;;43.60;29.70;;;14.60;99.90;;;;;;4987693;28;20206;-77
2021/03/26 11:49:36;;;;;;;42.03;29.37;;;14.70;99.90;;;;;;4987335;28;20653;-77
2021/03/26 11:52:06;;;;;;;40.83;27.83;;;14.80;99.90;;;;;;4987176;28;20230;-77
2021/03/26 11:54:42;;;;;;;39.73;27.10;;;14.90;99.90;;;;;;4987304;28;20786;-78
2021/03/26 11:57:24;;;;;;;37.17;27.53;;;15.00;99.90;;;;;;4987480;28;20696;-77
2021/03/26 12:00:05;;;;;;;41.70;28.87;;;15.00;99.90;;;;;;4994775;28;20530;-78
2021/03/26 12:02:44;;;;;;;39.73;28.83;;;15.10;99.90;;;;;;5006917;28;20583;-77
2021/03/26 12:05:36;;;;;;;41.30;27.63;;;15.20;99.90;;;;;;5005314;28;20271;-77
2021/03/26 12:08:08;;;;;;;38.40;28.40;;;15.30;99.90;;;;;;5000671;28;20222;-71
2021/03/26 12:10:39;;;;;;;39.77;29.43;;;15.50;99.90;;;;;;4985298;28;20198;-71
2021/03/26 12:13:15;;;;;;;41.37;29.93;;;15.70;99.90;;;;;;4986301;28;20233;-76
2021/03/26 12:15:51;;;;;;;42.07;29.27;;;15.80;99.90;;;;;;4986756;28;20205;-76
2021/03/26 12:18:25;;;;;;;42.77;29.47;;;16.00;99.90;;;;;;4985375;28;20233;-76
2021/03/26 12:21:05;;;;;;;40.77;29.13;;;16.20;99.90;;;;;;4986955;28;20284;-76
2021/03/26 12:23:37;;;;;;;45.17;29.90;;;16.40;99.90;;;;;;4989534;28;20198;-76
2021/03/26 12:26:14;;;;;;;39.90;28.90;;;16.60;99.90;;;;;;4987608;28;20206;-76
2021/03/26 12:29:11;;;;;;;39.60;29.10;;;16.70;99.90;;;;;;4986396;28;20700;-76
2021/03/26 12:31:43;;;;;;;44.60;29.63;;;16.70;99.90;;;;;;4970458;28;20260;-76
2021/03/26 12:34:21;;;;;;;42.50;30.03;;;16.70;99.90;;;;;;4986504;28;20206;-76
2021/03/26 12:36:53;;;;;;;39.63;29.07;;;16.80;99.90;;;;;;4986584;28;20665;-78
2021/03/26 12:39:28;;;;;;;42.07;29.23;;;16.80;99.90;;;;;;4986498;28;20575;-77
2021/03/26 12:42:05;;;;;;;41.27;31.60;;;17.00;99.90;;;;;;4985902;28;20197;-79
2021/03/26 12:44:37;;;;;;;48.43;32.07;;;17.10;99.90;;;;;;4986429;28;20198;-78
2021/03/26 12:47:19;;;;;;;45.50;31.00;;;17.20;99.90;;;;;;4992352;28;20202;-79
2021/03/26 12:49:58;;;;;;;43.90;30.03;;;17.20;99.90;;;;;;5000009;28;20197;-76
2021/03/26 12:52:40;;;;;;;46.03;32.27;;;17.30;99.90;;;;;;4989984;28;20202;-79
2021/03/26 12:55:13;;;;;;;40.67;31.20;;;17.40;99.90;;;;;;4990303;28;20234;-79
2021/03/26 12:57:47;;;;;;;45.90;32.23;;;17.50;99.90;;;;;;4990411;28;20205;-79
2021/03/26 13:00:19;;;;;;;44.83;31.73;;;17.40;99.90;;;;;;4990306;28;20202;-78
2021/03/26 13:02:57;;;;;;;42.50;30.90;;;17.10;99.90;;;;;;4990236;28;20198;-78
2021/03/26 13:05:27;;;;;;;46.30;31.70;;;17.10;99.90;;;;;;4990137;28;20194;-78
2021/03/26 13:08:03;;;;;;;42.53;31.60;;;17.00;99.90;;;;;;4990268;28;20225;-78
2021/03/26 13:10:37;;;;;;;46.03;31.63;;;17.20;99.90;;;;;;4990168;28;20548;-80
2021/03/26 13:13:18;;;;;;;47.47;30.73;;;17.20;99.90;;;;;;4990114;28;20637;-79
2021/03/26 13:16:08;;;;;;;44.13;31.00;;;17.10;99.90;;;;;;4989806;28;20194;-78
2021/03/26 13:18:46;;;;;;;43.70;32.70;;;16.90;99.90;;;;;;4989544;28;20218;-77